Terminal Aerodrome Forecast
Issued by NWS Cleveland, OH

Home | Current Version | Previous Version | Graphics & Text | Print | Product List | Glossary On
Versions: 1 2 3 4 5 6 7 8 9 10 11 12 13 14 15 16 17 18 19 20
586
FTUS41 KCLE 271936 AAA
TAFERI
TAF AMD
KERI 271936Z 2720/2818 25012KT P6SM SCT025
     FM272200 VRB03KT P6SM OVC030
     FM280800 10005KT 6SM -RA OVC015
     FM281000 07005KT 3SM -RA BR OVC008=

USA.gov is the U.S. government's official web portal to all federal, state and local government web resources and services.